Time;durP1;ratioP1;P1;durP2;ratioP2;P2;SDS_P1;SDS_P2;PMS_P1;PMS_P2;Temp;Humidity;BMP_temperature;BMP_pressure;BME280_temperature;BME280_humidity;BME280_pressure;Samples;Min_cycle;Max_cycle;Signal;HPM_P1;HPM_P2
2022/11/09 00:01:29;;;;;;;5.10;2.97;;;;;;;;;;5029865;28;20666;-77
2022/11/09 00:03:55;;;;;;;8.25;3.35;;;;;;;;;;5031184;28;20631;-78
2022/11/09 00:06:21;;;;;;;8.07;3.75;;;;;;;;;;5031334;28;20020;-79
2022/11/09 00:08:46;;;;;;;6.85;3.17;;;;;;;;;;5031238;28;20028;-82
2022/11/09 00:11:11;;;;;;;8.97;3.60;;;;;;;;;;5054606;28;20029;-83
2022/11/09 00:13:40;;;;;;;5.60;3.07;;;;;;;;;;5048287;28;20370;-82
2022/11/09 00:16:06;;;;;;;7.50;3.40;;;;;;;;;;5031983;28;20283;-82
2022/11/09 00:18:33;;;;;;;9.63;3.75;;;;;;;;;;5034644;28;20255;-83
2022/11/09 00:21:03;;;;;;;7.93;4.25;;;;;;;;;;5053818;28;20408;-81
2022/11/09 00:23:28;;;;;;;7.68;3.85;;;;;;;;;;5048930;28;20113;-80
2022/11/09 00:25:58;;;;;;;7.93;3.30;;;;;;;;;;5030178;28;20041;-83
2022/11/09 00:28:23;;;;;;;7.47;3.50;;;;;;;;;;5030797;28;20282;-76
2022/11/09 00:30:49;;;;;;;5.68;3.17;;;;;;;;;;5030893;28;20029;-77
2022/11/09 00:33:14;;;;;;;9.97;4.30;;;;;;;;;;5033161;28;20671;-77
2022/11/09 00:35:39;;;;;;;7.63;3.20;;;;;;;;;;5030608;28;20776;-77
2022/11/09 00:38:04;;;;;;;6.95;3.28;;;;;;;;;;5050751;28;20653;-78
2022/11/09 00:40:29;;;;;;;8.33;3.70;;;;;;;;;;5031027;28;20028;-77
2022/11/09 00:42:55;;;;;;;7.13;3.67;;;;;;;;;;5046656;28;20528;-76
2022/11/09 00:45:20;;;;;;;4.70;3.00;;;;;;;;;;5030413;28;20112;-76
2022/11/09 00:47:45;;;;;;;7.50;3.57;;;;;;;;;;5031986;28;20315;-77
2022/11/09 00:50:10;;;;;;;6.30;3.30;;;;;;;;;;5055911;28;20351;-76
2022/11/09 00:52:35;;;;;;;4.80;3.33;;;;;;;;;;5036365;28;20280;-77
2022/11/09 00:55:02;;;;;;;7.30;2.88;;;;;;;;;;5031964;28;20282;-78
2022/11/09 00:57:27;;;;;;;6.00;2.78;;;;;;;;;;5032337;28;20024;-77
2022/11/09 00:59:53;;;;;;;7.85;2.83;;;;;;;;;;5034829;28;20485;-84
2022/11/09 01:02:18;;;;;;;7.00;2.63;;;;;;;;;;5034934;28;20032;-79
2022/11/09 01:04:43;;;;;;;6.22;3.08;;;;;;;;;;5039551;28;20521;-78
2022/11/09 01:07:08;;;;;;;7.20;3.10;;;;;;;;;;5051695;28;20017;-78
2022/11/09 01:09:34;;;;;;;6.65;3.35;;;;;;;;;;5027790;28;20295;-79
2022/11/09 01:11:59;;;;;;;6.40;2.58;;;;;;;;;;5054130;28;20161;-78
2022/11/09 01:14:24;;;;;;;5.05;3.20;;;;;;;;;;5030998;28;20527;-78
2022/11/09 01:16:49;;;;;;;4.57;2.80;;;;;;;;;;5048685;28;20033;-79
2022/11/09 01:19:15;;;;;;;4.88;2.90;;;;;;;;;;5034735;28;20345;-78
2022/11/09 01:21:40;;;;;;;7.23;3.27;;;;;;;;;;5031168;28;20440;-76
2022/11/09 01:24:05;;;;;;;6.90;2.67;;;;;;;;;;5036924;28;20777;-75
2022/11/09 01:26:31;;;;;;;6.55;3.30;;;;;;;;;;5028711;28;20283;-77
2022/11/09 01:28:56;;;;;;;9.05;3.20;;;;;;;;;;5030325;28;20394;-76
2022/11/09 01:31:22;;;;;;;6.47;3.25;;;;;;;;;;5029885;28;20086;-76
2022/11/09 01:33:47;;;;;;;6.85;2.72;;;;;;;;;;5026046;28;20132;-76
2022/11/09 01:36:14;;;;;;;6.47;2.58;;;;;;;;;;5008599;28;20454;-76
2022/11/09 01:38:40;;;;;;;6.35;2.80;;;;;;;;;;5014428;28;20092;-80
2022/11/09 01:41:05;;;;;;;4.87;2.77;;;;;;;;;;5009432;28;20029;-76
2022/11/09 01:43:31;;;;;;;7.30;2.97;;;;;;;;;;5012182;28;20287;-76
2022/11/09 01:46:05;;;;;;;5.43;2.95;;;;;;;;;;5022846;28;20040;-75
2022/11/09 01:48:36;;;;;;;7.30;3.03;;;;;;;;;;5029582;28;20591;-74
2022/11/09 01:51:04;;;;;;;7.90;3.05;;;;;;;;;;5028960;28;20029;-75
2022/11/09 01:53:31;;;;;;;7.72;4.25;;;;;;;;;;5008737;28;20036;-75
2022/11/09 01:55:58;;;;;;;8.05;3.65;;;;;;;;;;5034512;28;20033;-79
2022/11/09 01:58:27;;;;;;;6.78;3.03;;;;;;;;;;5030259;28;20031;-80
2022/11/09 02:00:54;;;;;;;7.47;3.67;;;;;;;;;;5011869;28;20029;-81
2022/11/09 02:03:19;;;;;;;6.03;2.50;;;;;;;;;;5010096;28;20029;-79
2022/11/09 02:05:46;;;;;;;9.83;3.20;;;;;;;;;;5047472;28;20216;-81
2022/11/09 02:08:13;;;;;;;7.10;3.53;;;;;;;;;;5031295;28;20116;-81
2022/11/09 02:10:43;;;;;;;7.78;3.00;;;;;;;;;;5032054;28;20029;-80
2022/11/09 02:13:11;;;;;;;8.00;3.38;;;;;;;;;;5047466;28;20017;-80
2022/11/09 02:15:36;;;;;;;8.43;3.20;;;;;;;;;;5027533;28;20021;-83
2022/11/09 02:18:02;;;;;;;6.75;3.20;;;;;;;;;;5030637;28;20017;-80
2022/11/09 02:20:27;;;;;;;8.55;3.03;;;;;;;;;;5029676;28;20116;-81
2022/11/09 02:22:53;;;;;;;9.77;3.13;;;;;;;;;;5029012;28;20116;-80
2022/11/09 02:25:18;;;;;;;7.03;3.13;;;;;;;;;;5024281;28;20307;-79
2022/11/09 02:27:44;;;;;;;7.27;3.17;;;;;;;;;;5045592;28;20021;-80
2022/11/09 02:30:10;;;;;;;7.03;2.90;;;;;;;;;;5036135;28;20310;-79
2022/11/09 02:32:36;;;;;;;5.53;2.88;;;;;;;;;;5017606;28;20029;-81
2022/11/09 02:35:02;;;;;;;6.38;3.35;;;;;;;;;;5029162;28;20035;-79
2022/11/09 02:37:29;;;;;;;6.10;2.80;;;;;;;;;;5029320;28;20032;-75
2022/11/09 02:39:56;;;;;;;7.47;2.72;;;;;;;;;;5046853;28;20034;-74
2022/11/09 02:42:22;;;;;;;5.95;2.88;;;;;;;;;;5033093;28;20031;-75
2022/11/09 02:44:50;;;;;;;6.25;2.88;;;;;;;;;;5031343;28;20406;-76
2022/11/09 02:47:15;;;;;;;7.82;2.97;;;;;;;;;;5051928;28;20021;-74
2022/11/09 02:49:40;;;;;;;5.87;2.90;;;;;;;;;;5027202;28;20039;-76
2022/11/09 02:52:05;;;;;;;3.72;2.38;;;;;;;;;;5040352;28;20274;-75
2022/11/09 02:54:31;;;;;;;6.60;3.17;;;;;;;;;;5046427;28;20033;-77
2022/11/09 02:56:56;;;;;;;5.10;2.70;;;;;;;;;;5032990;28;20024;-77
2022/11/09 02:59:21;;;;;;;9.93;2.70;;;;;;;;;;5031165;28;20033;-78
2022/11/09 03:01:46;;;;;;;8.63;2.50;;;;;;;;;;5027848;28;20287;-77
2022/11/09 03:04:12;;;;;;;5.40;2.33;;;;;;;;;;5049873;28;20483;-77
2022/11/09 03:06:37;;;;;;;7.73;3.20;;;;;;;;;;5034477;28;20645;-79
2022/11/09 03:09:06;;;;;;;5.60;2.70;;;;;;;;;;5029305;28;20287;-80
2022/11/09 03:11:32;;;;;;;5.00;2.45;;;;;;;;;;5049486;28;20159;-75
2022/11/09 03:13:57;;;;;;;7.78;2.58;;;;;;;;;;5045186;28;20116;-77
2022/11/09 03:16:23;;;;;;;7.43;2.83;;;;;;;;;;5029896;28;20032;-77
2022/11/09 03:18:48;;;;;;;5.43;2.88;;;;;;;;;;5033477;28;20043;-75
2022/11/09 03:21:13;;;;;;;3.47;2.30;;;;;;;;;;5047393;28;20048;-77
2022/11/09 03:23:38;;;;;;;5.38;2.58;;;;;;;;;;5048516;28;20284;-75
2022/11/09 03:26:04;;;;;;;6.85;2.67;;;;;;;;;;5026690;28;20112;-79
2022/11/09 03:28:29;;;;;;;5.65;2.10;;;;;;;;;;5030031;28;20479;-76
2022/11/09 03:30:54;;;;;;;6.20;2.72;;;;;;;;;;5026524;28;20052;-78
2022/11/09 03:33:19;;;;;;;6.72;2.63;;;;;;;;;;5046239;28;20380;-78
2022/11/09 03:35:45;;;;;;;6.20;2.60;;;;;;;;;;5027680;28;20112;-77
2022/11/09 03:38:10;;;;;;;9.18;3.00;;;;;;;;;;5051067;28;20278;-78
2022/11/09 03:40:36;;;;;;;6.93;2.88;;;;;;;;;;5024670;28;20029;-77
2022/11/09 03:43:01;;;;;;;11.55;2.80;;;;;;;;;;5026587;28;20022;-78
2022/11/09 03:45:29;;;;;;;6.63;2.85;;;;;;;;;;5027415;28;20040;-80
2022/11/09 03:47:59;;;;;;;6.60;2.85;;;;;;;;;;5028365;28;20032;-74
2022/11/09 03:50:25;;;;;;;7.15;2.67;;;;;;;;;;5030480;28;20120;-77
2022/11/09 03:52:50;;;;;;;4.45;2.70;;;;;;;;;;5038430;28;20527;-77
2022/11/09 03:55:15;;;;;;;10.03;3.27;;;;;;;;;;5032407;28;20041;-77
2022/11/09 03:57:42;;;;;;;5.55;3.10;;;;;;;;;;5032039;28;20276;-78
2022/11/09 04:00:08;;;;;;;7.93;3.03;;;;;;;;;;5024770;28;20384;-76
2022/11/09 04:02:33;;;;;;;7.47;2.97;;;;;;;;;;5032587;28;20031;-78
2022/11/09 04:04:58;;;;;;;6.93;3.15;;;;;;;;;;5034251;28;20116;-77
2022/11/09 04:07:24;;;;;;;6.68;3.25;;;;;;;;;;5036866;28;20017;-79
2022/11/09 04:09:49;;;;;;;4.70;2.88;;;;;;;;;;5031306;28;20115;-78
2022/11/09 04:12:14;;;;;;;6.05;3.22;;;;;;;;;;5031310;28;20048;-79
2022/11/09 04:14:39;;;;;;;7.07;3.23;;;;;;;;;;5032686;28;20029;-78
2022/11/09 04:17:04;;;;;;;4.03;2.70;;;;;;;;;;5032906;28;20321;-78
2022/11/09 04:19:30;;;;;;;4.73;3.10;;;;;;;;;;5036008;28;20312;-78
2022/11/09 04:21:55;;;;;;;8.63;3.40;;;;;;;;;;5044573;28;20033;-79
2022/11/09 04:24:20;;;;;;;5.60;3.60;;;;;;;;;;5052848;28;20327;-78
2022/11/09 04:26:46;;;;;;;4.37;2.70;;;;;;;;;;5033825;28;20330;-81
2022/11/09 04:29:11;;;;;;;7.32;3.78;;;;;;;;;;5045898;28;20277;-82
2022/11/09 04:31:36;;;;;;;8.77;4.07;;;;;;;;;;5045048;28;20029;-79
2022/11/09 04:34:02;;;;;;;6.33;3.60;;;;;;;;;;5034528;28;20455;-81
2022/11/09 04:36:27;;;;;;;6.25;3.05;;;;;;;;;;5028436;28;20777;-80
2022/11/09 04:38:52;;;;;;;5.40;3.03;;;;;;;;;;5026496;28;20029;-79
2022/11/09 04:41:17;;;;;;;9.03;3.13;;;;;;;;;;5047551;28;20599;-76
2022/11/09 04:43:42;;;;;;;6.33;3.40;;;;;;;;;;5023402;28;20709;-74
2022/11/09 04:46:08;;;;;;;9.83;3.30;;;;;;;;;;5027935;28;20771;-76
2022/11/09 04:48:33;;;;;;;6.97;3.63;;;;;;;;;;5043626;28;20738;-76
2022/11/09 04:51:03;;;;;;;6.07;3.22;;;;;;;;;;5046492;28;20404;-75
2022/11/09 04:53:31;;;;;;;6.68;3.90;;;;;;;;;;5036173;28;20021;-77
2022/11/09 04:55:56;;;;;;;7.00;3.25;;;;;;;;;;5026545;28;20491;-77
2022/11/09 04:58:22;;;;;;;7.38;4.07;;;;;;;;;;5030490;28;20132;-77
2022/11/09 05:00:47;;;;;;;9.43;3.50;;;;;;;;;;5029183;28;20554;-76
2022/11/09 05:03:12;;;;;;;6.60;3.22;;;;;;;;;;5050189;28;20359;-83
2022/11/09 05:05:38;;;;;;;8.38;3.45;;;;;;;;;;5028268;28;20135;-82
2022/11/09 05:08:04;;;;;;;8.80;3.38;;;;;;;;;;5029923;28;20021;-82
2022/11/09 05:10:30;;;;;;;11.45;3.85;;;;;;;;;;5031532;28;20028;-84
2022/11/09 05:12:56;;;;;;;10.52;3.58;;;;;;;;;;5052808;28;20045;-82
2022/11/09 05:15:22;;;;;;;7.35;3.35;;;;;;;;;;5037535;28;20048;-84
2022/11/09 05:17:47;;;;;;;5.00;3.17;;;;;;;;;;5034352;28;20471;-77
2022/11/09 05:20:12;;;;;;;8.47;3.40;;;;;;;;;;5027623;28;20629;-83
2022/11/09 05:25:22;;;;;;;8.32;4.00;;;;;;;;;;5050949;28;20029;-84
2022/11/09 05:27:47;;;;;;;5.27;3.43;;;;;;;;;;5030699;28;20485;-82
2022/11/09 05:30:12;;;;;;;5.97;3.07;;;;;;;;;;5026698;28;20650;-82
2022/11/09 05:32:38;;;;;;;7.83;3.10;;;;;;;;;;5059708;28;20267;-82
2022/11/09 05:35:03;;;;;;;7.20;4.22;;;;;;;;;;5045917;28;20649;-82
2022/11/09 05:37:29;;;;;;;8.75;3.53;;;;;;;;;;5032140;28;20589;-75
2022/11/09 05:39:54;;;;;;;6.13;3.25;;;;;;;;;;5039666;28;20032;-82
2022/11/09 05:42:22;;;;;;;6.78;3.30;;;;;;;;;;5029547;28;20025;-83
2022/11/09 05:44:47;;;;;;;5.82;3.50;;;;;;;;;;5031683;28;20065;-83
2022/11/09 05:47:12;;;;;;;5.60;3.30;;;;;;;;;;5045719;28;20079;-81
2022/11/09 05:49:38;;;;;;;9.33;3.87;;;;;;;;;;5035398;28;20032;-84
2022/11/09 05:52:03;;;;;;;7.50;3.67;;;;;;;;;;5032557;28;20276;-83
2022/11/09 05:54:28;;;;;;;7.15;3.83;;;;;;;;;;5047177;28;20034;-78
2022/11/09 05:56:53;;;;;;;7.73;3.90;;;;;;;;;;5044948;28;20488;-78
2022/11/09 05:59:19;;;;;;;6.00;3.35;;;;;;;;;;5037465;28;20287;-83
2022/11/09 06:01:44;;;;;;;6.97;4.07;;;;;;;;;;5027446;28;20128;-84
2022/11/09 06:04:09;;;;;;;8.33;4.00;;;;;;;;;;5030070;28;20323;-86
2022/11/09 06:06:34;;;;;;;8.37;4.57;;;;;;;;;;5029526;28;20314;-83
2022/11/09 06:08:59;;;;;;;6.20;3.40;;;;;;;;;;5023996;28;20307;-89
2022/11/09 06:11:25;;;;;;;8.20;3.50;;;;;;;;;;5024692;28;20292;-87
2022/11/09 06:13:51;;;;;;;7.13;4.60;;;;;;;;;;5032660;28;20672;-81
2022/11/09 06:16:16;;;;;;;8.20;3.50;;;;;;;;;;5033322;28;20374;-78
2022/11/09 06:18:41;;;;;;;8.67;4.07;;;;;;;;;;5042137;28;20039;-79
2022/11/09 06:21:06;;;;;;;8.43;4.03;;;;;;;;;;5042714;28;20350;-79
2022/11/09 06:23:33;;;;;;;6.60;3.53;;;;;;;;;;5037020;28;20286;-79
2022/11/09 06:25:59;;;;;;;6.82;3.70;;;;;;;;;;5044138;28;20796;-80
2022/11/09 06:28:25;;;;;;;7.05;3.92;;;;;;;;;;5041726;28;20455;-79
2022/11/09 06:30:50;;;;;;;7.68;3.95;;;;;;;;;;5051286;28;20112;-79
2022/11/09 06:33:15;;;;;;;4.72;3.70;;;;;;;;;;5036638;28;20117;-79
2022/11/09 06:35:41;;;;;;;6.67;4.10;;;;;;;;;;5022601;28;20111;-81
2022/11/09 06:38:06;;;;;;;5.88;3.58;;;;;;;;;;5047903;28;20366;-84
2022/11/09 06:40:32;;;;;;;7.07;3.80;;;;;;;;;;5020728;28;20028;-81
2022/11/09 06:42:58;;;;;;;7.88;4.03;;;;;;;;;;5030148;28;20033;-81
2022/11/09 06:45:24;;;;;;;6.03;3.65;;;;;;;;;;5059895;28;20382;-84
2022/11/09 06:47:49;;;;;;;8.40;3.78;;;;;;;;;;5022972;28;20073;-85
2022/11/09 06:50:14;;;;;;;8.93;3.90;;;;;;;;;;5036733;28;20111;-78
2022/11/09 06:52:40;;;;;;;9.27;3.90;;;;;;;;;;5044666;28;20371;-82
2022/11/09 06:55:05;;;;;;;7.10;4.03;;;;;;;;;;5037855;28;20274;-83
2022/11/09 06:57:31;;;;;;;8.32;4.05;;;;;;;;;;5043230;28;20550;-81
2022/11/09 06:59:58;;;;;;;8.70;4.18;;;;;;;;;;5043002;28;21222;-79
2022/11/09 07:02:24;;;;;;;7.38;4.25;;;;;;;;;;5026058;28;20029;-81
2022/11/09 07:04:52;;;;;;;9.30;4.80;;;;;;;;;;5046413;28;20032;-82
2022/11/09 07:07:18;;;;;;;6.22;4.07;;;;;;;;;;5019266;28;20025;-83
2022/11/09 07:09:43;;;;;;;7.50;3.65;;;;;;;;;;5026451;28;20028;-83
2022/11/09 07:12:08;;;;;;;8.97;3.77;;;;;;;;;;5024194;28;20478;-76
2022/11/09 07:14:34;;;;;;;7.57;4.57;;;;;;;;;;5024066;28;20128;-76
2022/11/09 07:16:59;;;;;;;5.10;3.10;;;;;;;;;;5010084;28;20431;-79
2022/11/09 07:19:25;;;;;;;10.82;4.13;;;;;;;;;;5017661;28;20025;-78
2022/11/09 07:21:50;;;;;;;8.37;4.33;;;;;;;;;;5014493;28;20413;-78
2022/11/09 07:24:15;;;;;;;7.07;3.90;;;;;;;;;;5022978;28;20287;-77
2022/11/09 07:26:41;;;;;;;7.55;4.30;;;;;;;;;;5021618;28;20317;-76
2022/11/09 07:29:06;;;;;;;5.88;3.38;;;;;;;;;;5021118;28;20053;-76
2022/11/09 07:31:32;;;;;;;4.68;2.75;;;;;;;;;;5040216;28;20076;-75
2022/11/09 07:34:01;;;;;;;5.50;2.67;;;;;;;;;;5036891;28;20376;-73
2022/11/09 07:36:26;;;;;;;3.45;2.30;;;;;;;;;;5024379;28;20336;-73
2022/11/09 07:38:51;;;;;;;5.50;2.42;;;;;;;;;;5049275;28;20033;-74
2022/11/09 07:41:16;;;;;;;4.17;1.90;;;;;;;;;;5031295;28;20036;-76
2022/11/09 07:43:42;;;;;;;3.83;2.47;;;;;;;;;;5048603;28;20291;-74
2022/11/09 07:46:07;;;;;;;5.73;2.10;;;;;;;;;;5026141;28;20288;-87
2022/11/09 07:48:32;;;;;;;5.40;2.40;;;;;;;;;;5032834;28;20275;-73
2022/11/09 07:50:59;;;;;;;2.27;1.90;;;;;;;;;;5026097;28;20366;-75
2022/11/09 07:53:24;;;;;;;4.82;2.10;;;;;;;;;;5013554;28;20308;-74
2022/11/09 07:55:57;;;;;;;4.38;2.42;;;;;;;;;;5043521;28;20341;-75
2022/11/09 07:58:23;;;;;;;7.47;2.67;;;;;;;;;;5028220;28;20025;-74
2022/11/09 08:00:48;;;;;;;4.85;2.33;;;;;;;;;;5044064;28;20390;-74
2022/11/09 08:03:13;;;;;;;5.70;2.83;;;;;;;;;;5042257;28;20029;-71
2022/11/09 08:05:38;;;;;;;5.27;2.70;;;;;;;;;;5030730;28;20381;-79
2022/11/09 08:08:09;;;;;;;7.68;2.95;;;;;;;;;;5027033;28;20260;-73
2022/11/09 08:10:35;;;;;;;8.82;3.20;;;;;;;;;;5030702;28;20112;-74
2022/11/09 08:13:01;;;;;;;5.22;2.70;;;;;;;;;;5043974;28;20117;-77
2022/11/09 08:15:27;;;;;;;6.00;2.65;;;;;;;;;;5049751;28;20036;-74
2022/11/09 08:17:52;;;;;;;6.68;3.35;;;;;;;;;;5044810;28;20017;-75
2022/11/09 08:20:18;;;;;;;5.13;2.95;;;;;;;;;;5031360;28;20032;-75
2022/11/09 08:22:44;;;;;;;5.45;3.10;;;;;;;;;;5048006;28;20020;-79
2022/11/09 08:25:10;;;;;;;6.97;3.58;;;;;;;;;;5047790;28;20063;-77
2022/11/09 08:27:39;;;;;;;5.95;3.08;;;;;;;;;;5046790;28;20036;-79
2022/11/09 08:30:10;;;;;;;6.90;3.25;;;;;;;;;;5043757;28;20078;-81
2022/11/09 08:32:35;;;;;;;5.47;3.30;;;;;;;;;;5039823;28;20031;-79
2022/11/09 08:35:01;;;;;;;7.65;3.20;;;;;;;;;;5023665;28;20029;-79
2022/11/09 08:37:26;;;;;;;8.30;3.45;;;;;;;;;;5050183;28;20036;-78
2022/11/09 08:39:51;;;;;;;6.13;3.50;;;;;;;;;;5044087;28;20033;-77
2022/11/09 08:42:17;;;;;;;5.77;3.87;;;;;;;;;;5019862;28;20272;-77
2022/11/09 08:44:42;;;;;;;5.87;4.03;;;;;;;;;;5041927;28;20444;-76
2022/11/09 08:47:07;;;;;;;7.75;4.22;;;;;;;;;;5044615;28;20268;-78
2022/11/09 08:49:33;;;;;;;9.95;4.60;;;;;;;;;;5045422;28;20116;-78
2022/11/09 08:51:58;;;;;;;6.72;3.85;;;;;;;;;;5031648;28;20113;-76
2022/11/09 08:54:24;;;;;;;8.63;3.77;;;;;;;;;;5042399;28;20119;-81
2022/11/09 08:56:49;;;;;;;8.43;3.90;;;;;;;;;;5024167;28;20343;-75
2022/11/09 08:59:14;;;;;;;6.10;3.53;;;;;;;;;;5048581;28;20064;-70
2022/11/09 09:01:39;;;;;;;7.70;3.60;;;;;;;;;;5045782;28;20037;-74
2022/11/09 09:04:05;;;;;;;8.20;4.10;;;;;;;;;;5024920;28;20291;-74
2022/11/09 09:06:30;;;;;;;8.00;3.97;;;;;;;;;;5026646;28;20279;-75
2022/11/09 09:08:55;;;;;;;4.70;2.87;;;;;;;;;;5046118;28;20491;-74
2022/11/09 09:11:20;;;;;;;10.40;3.40;;;;;;;;;;5028487;28;20159;-73
2022/11/09 09:13:45;;;;;;;4.45;2.70;;;;;;;;;;5028618;28;20358;-74
2022/11/09 09:16:12;;;;;;;6.10;3.17;;;;;;;;;;5041070;28;20455;-77
2022/11/09 09:18:37;;;;;;;5.30;3.40;;;;;;;;;;5023035;28;20277;-84
2022/11/09 09:21:06;;;;;;;5.70;2.90;;;;;;;;;;5019711;28;20408;-78
2022/11/09 09:23:32;;;;;;;7.80;3.35;;;;;;;;;;5043222;28;20028;-79
2022/11/09 09:25:57;;;;;;;8.07;3.47;;;;;;;;;;5047294;28;20182;-78
2022/11/09 09:28:22;;;;;;;8.43;3.50;;;;;;;;;;5038773;28;20278;-79
2022/11/09 09:30:47;;;;;;;5.82;3.08;;;;;;;;;;5022589;28;20016;-80
2022/11/09 09:33:13;;;;;;;6.95;3.28;;;;;;;;;;5050198;28;20025;-78
2022/11/09 09:35:38;;;;;;;9.20;3.63;;;;;;;;;;5043595;28;20109;-76
2022/11/09 09:38:03;;;;;;;5.70;2.83;;;;;;;;;;5026869;28;20028;-76
2022/11/09 09:40:32;;;;;;;4.40;2.70;;;;;;;;;;5025522;28;20056;-76
2022/11/09 09:42:57;;;;;;;5.13;2.70;;;;;;;;;;5028686;28;20276;-76
2022/11/09 09:45:24;;;;;;;7.30;2.70;;;;;;;;;;5029255;28;20994;-75
2022/11/09 09:47:59;;;;;;;3.92;1.98;;;;;;;;;;5028857;28;20115;-74
2022/11/09 09:50:27;;;;;;;5.60;2.22;;;;;;;;;;5044380;28;20028;-75
2022/11/09 09:53:11;;;;;;;4.22;1.60;;;;;;;;;;5025370;28;20128;-76
2022/11/09 09:55:37;;;;;;;5.50;1.95;;;;;;;;;;5048442;28;20866;-79
2022/11/09 09:58:31;;;;;;;4.97;2.13;;;;;;;;;;5054299;23;20044;-75
2022/11/09 10:01:14;;;;;;;3.33;1.65;;;;;;;;;;5035433;28;20059;-76
2022/11/09 10:03:39;;;;;;;1.98;1.42;;;;;;;;;;5043911;28;20491;-76
2022/11/09 10:06:30;;;;;;;2.90;1.88;;;;;;;;;;5025118;28;20060;-78
2022/11/09 10:08:58;;;;;;;3.83;1.90;;;;;;;;;;5025172;28;20087;-77
2022/11/09 10:11:33;;;;;;;3.78;1.83;;;;;;;;;;5045848;28;20079;-76
2022/11/09 10:14:10;;;;;;;3.85;2.10;;;;;;;;;;5052589;28;20035;-71
2022/11/09 10:16:54;;;;;;;5.85;2.13;;;;;;;;;;5045467;28;20028;-75
2022/11/09 10:19:45;;;;;;;2.40;1.30;;;;;;;;;;5021949;28;20025;-77
2022/11/09 10:22:10;;;;;;;4.43;2.05;;;;;;;;;;5048534;28;20111;-77
2022/11/09 10:24:41;;;;;;;4.50;1.93;;;;;;;;;;5036640;28;20117;-76
2022/11/09 10:27:26;;;;;;;3.67;1.52;;;;;;;;;;5046721;28;20276;-76
2022/11/09 10:29:51;;;;;;;4.88;1.85;;;;;;;;;;5039933;28;20057;-79
2022/11/09 10:32:21;;;;;;;4.32;2.38;;;;;;;;;;5043526;28;20064;-79
2022/11/09 10:34:52;;;;;;;4.10;1.73;;;;;;;;;;5046420;28;20029;-74
2022/11/09 10:37:20;;;;;;;3.38;2.05;;;;;;;;;;5047898;28;20033;-74
2022/11/09 10:39:51;;;;;;;2.65;1.73;;;;;;;;;;5042986;28;20075;-75
2022/11/09 10:42:16;;;;;;;2.63;1.70;;;;;;;;;;5037406;28;20029;-74
2022/11/09 10:44:42;;;;;;;3.67;1.60;;;;;;;;;;5047374;28;20375;-75
2022/11/09 10:47:08;;;;;;;4.63;2.20;;;;;;;;;;5028031;28;20685;-74
2022/11/09 10:49:34;;;;;;;7.65;2.78;;;;;;;;;;5044939;28;20367;-79
2022/11/09 10:51:59;;;;;;;7.05;1.73;;;;;;;;;;5051200;28;20422;-79
2022/11/09 10:54:30;;;;;;;1.85;1.63;;;;;;;;;;5039311;28;20025;-83
2022/11/09 10:57:16;;;;;;;3.00;1.67;;;;;;;;;;5041851;28;20088;-79
2022/11/09 10:59:47;;;;;;;3.03;2.15;;;;;;;;;;5043849;28;20039;-82
2022/11/09 11:02:25;;;;;;;4.13;2.33;;;;;;;;;;5045951;28;20091;-80
2022/11/09 11:05:11;;;;;;;3.90;2.00;;;;;;;;;;5021161;28;20024;-87
2022/11/09 11:07:37;;;;;;;2.67;1.55;;;;;;;;;;5020152;28;20200;-71
2022/11/09 11:10:14;;;;;;;2.50;1.65;;;;;;;;;;5054495;28;20483;-73
2022/11/09 11:12:40;;;;;;;6.15;2.25;;;;;;;;;;5028885;28;20037;-73
2022/11/09 11:15:22;;;;;;;5.15;1.83;;;;;;;;;;5044110;28;20033;-75
2022/11/09 11:17:47;;;;;;;2.45;1.70;;;;;;;;;;5056226;28;20042;-75
2022/11/09 11:20:24;;;;;;;2.97;1.90;;;;;;;;;;5049514;28;20013;-73
2022/11/09 11:22:49;;;;;;;4.93;2.03;;;;;;;;;;5022354;28;20037;-76
2022/11/09 11:25:19;;;;;;;4.50;2.37;;;;;;;;;;5047453;28;20494;-76
2022/11/09 11:27:47;;;;;;;2.88;1.85;;;;;;;;;;5050286;28;20625;-69
2022/11/09 11:30:24;;;;;;;4.45;2.05;;;;;;;;;;5035458;28;20036;-78
2022/11/09 11:32:50;;;;;;;4.95;2.08;;;;;;;;;;5035461;28;20552;-79
2022/11/09 11:35:34;;;;;;;4.30;2.13;;;;;;;;;;5050783;28;20112;-79
2022/11/09 11:38:14;;;;;;;3.45;1.67;;;;;;;;;;5047928;28;20036;-78
2022/11/09 11:40:58;;;;;;;3.28;1.90;;;;;;;;;;5051697;28;20033;-76
2022/11/09 11:43:42;;;;;;;3.58;2.10;;;;;;;;;;5031254;28;20687;-77
2022/11/09 11:46:07;;;;;;;5.65;2.28;;;;;;;;;;5056053;28;20032;-70
2022/11/09 11:48:52;;;;;;;6.60;1.83;;;;;;;;;;5054391;28;20644;-77
2022/11/09 11:51:26;;;;;;;2.47;1.70;;;;;;;;;;5057219;28;20048;-78
2022/11/09 11:54:17;;;;;;;4.25;2.03;;;;;;;;;;5051344;28;20591;-77
2022/11/09 11:56:58;;;;;;;5.25;2.63;;;;;;;;;;4981263;28;20038;-80
2022/11/09 11:59:31;;;;;;;9.68;2.00;;;;;;;;;;5054241;28;20044;-81
2022/11/09 12:02:32;;;;;;;3.95;1.75;;;;;;;;;;5053063;28;20024;-73
2022/11/09 12:05:00;;;;;;;2.90;2.20;;;;;;;;;;4943037;28;20039;-70
2022/11/09 12:07:40;;;;;;;2.95;1.70;;;;;;;;;;5023939;28;20610;-76
2022/11/09 12:10:20;;;;;;;4.50;1.83;;;;;;;;;;5030258;28;20037;-78
2022/11/09 12:12:52;;;;;;;3.33;1.77;;;;;;;;;;5032351;28;20203;-76
2022/11/09 12:15:26;;;;;;;6.13;1.95;;;;;;;;;;5018473;28;20045;-73
2022/11/09 12:18:04;;;;;;;4.38;2.03;;;;;;;;;;5032709;28;20307;-76
2022/11/09 12:20:38;;;;;;;2.85;1.80;;;;;;;;;;5057753;28;20972;-73
2022/11/09 12:23:12;;;;;;;1.98;1.33;;;;;;;;;;5048845;28;20017;-76
2022/11/09 12:25:56;;;;;;;3.83;1.77;;;;;;;;;;5037349;28;20510;-71
2022/11/09 12:28:42;;;;;;;3.17;1.52;;;;;;;;;;5048890;28;20033;-70
2022/11/09 12:31:14;;;;;;;3.65;1.55;;;;;;;;;;5040483;28;20024;-72
2022/11/09 12:34:00;;;;;;;4.00;2.17;;;;;;;;;;5041046;28;20029;-70
2022/11/09 12:36:44;;;;;;;2.92;1.88;;;;;;;;;;5040843;28;20079;-71
2022/11/09 12:39:15;;;;;;;2.85;1.80;;;;;;;;;;5052160;28;20052;-74
2022/11/09 12:41:41;;;;;;;4.30;1.95;;;;;;;;;;5047126;28;20037;-77
2022/11/09 12:44:14;;;;;;;5.30;1.83;;;;;;;;;;5039368;28;20476;-80
2022/11/09 12:46:42;;;;;;;2.35;1.70;;;;;;;;;;5050387;28;20024;-79
2022/11/09 12:49:14;;;;;;;4.53;1.60;;;;;;;;;;5028746;28;20033;-89
2022/11/09 12:51:39;;;;;;;1.92;1.48;;;;;;;;;;5047671;28;20152;-76
2022/11/09 12:54:10;;;;;;;3.58;1.63;;;;;;;;;;5026563;28;20059;-82
2022/11/09 12:56:39;;;;;;;1.88;1.33;;;;;;;;;;5026055;28;20039;-79
2022/11/09 12:59:33;;;;;;;4.35;1.70;;;;;;;;;;5051905;28;20093;-79
2022/11/09 13:02:00;;;;;;;2.50;1.60;;;;;;;;;;5021457;28;20026;-74
2022/11/09 13:04:26;;;;;;;3.67;2.03;;;;;;;;;;5053224;28;20033;-71
2022/11/09 13:07:20;;;;;;;3.90;1.75;;;;;;;;;;5045885;28;20410;-71
2022/11/09 13:09:52;;;;;;;4.82;2.03;;;;;;;;;;5038712;28;20174;-71
2022/11/09 13:12:18;;;;;;;3.33;2.13;;;;;;;;;;5052920;28;20021;-71
2022/11/09 13:14:44;;;;;;;3.25;1.88;;;;;;;;;;5054676;28;20029;-71
2022/11/09 13:17:24;;;;;;;5.55;2.60;;;;;;;;;;5062095;28;20044;-71
2022/11/09 13:19:52;;;;;;;3.17;1.70;;;;;;;;;;5047512;28;20033;-70
2022/11/09 13:22:21;;;;;;;2.55;1.90;;;;;;;;;;5042600;28;20036;-71
2022/11/09 13:25:00;;;;;;;3.37;1.90;;;;;;;;;;5044682;28;20041;-68
2022/11/09 13:27:31;;;;;;;4.10;2.28;;;;;;;;;;5044653;28;20392;-68
2022/11/09 13:29:56;;;;;;;3.20;1.63;;;;;;;;;;5043594;28;20032;-67
2022/11/09 13:32:23;;;;;;;1.97;1.80;;;;;;;;;;5042292;28;20044;-69
2022/11/09 13:34:58;;;;;;;1.98;1.45;;;;;;;;;;5047145;28;20017;-68
2022/11/09 13:37:35;;;;;;;8.93;2.25;;;;;;;;;;5051417;28;20036;-70
2022/11/09 13:40:20;;;;;;;4.75;1.85;;;;;;;;;;5048359;28;20029;-67
2022/11/09 13:42:55;;;;;;;5.90;2.05;;;;;;;;;;5039679;28;20083;-69
2022/11/09 13:45:24;;;;;;;4.85;2.10;;;;;;;;;;5049448;28;20495;-69
2022/11/09 13:47:50;;;;;;;11.02;2.58;;;;;;;;;;5046958;28;20024;-67
2022/11/09 13:50:17;;;;;;;4.70;2.08;;;;;;;;;;5044611;28;20064;-69
2022/11/09 13:52:42;;;;;;;5.43;1.95;;;;;;;;;;5046853;28;20029;-69
2022/11/09 13:55:21;;;;;;;2.92;2.00;;;;;;;;;;5040767;28;20037;-67
2022/11/09 13:57:46;;;;;;;4.50;1.80;;;;;;;;;;5046878;28;20029;-71
2022/11/09 14:00:18;;;;;;;5.00;2.10;;;;;;;;;;5042471;28;20384;-70
2022/11/09 14:02:50;;;;;;;2.80;1.55;;;;;;;;;;5045716;28;20139;-70
2022/11/09 14:05:28;;;;;;;3.58;1.85;;;;;;;;;;5025590;28;20026;-71
2022/11/09 14:07:54;;;;;;;5.38;2.03;;;;;;;;;;5046144;28;20025;-71
2022/11/09 14:10:24;;;;;;;5.53;2.33;;;;;;;;;;5044223;28;20107;-70
2022/11/09 14:13:04;;;;;;;3.35;1.75;;;;;;;;;;5049918;28;20120;-69
2022/11/09 14:15:29;;;;;;;3.00;1.60;;;;;;;;;;5026452;28;20024;-73
2022/11/09 14:18:12;;;;;;;4.33;1.77;;;;;;;;;;5050483;28;20703;-70
2022/11/09 14:20:37;;;;;;;7.43;2.28;;;;;;;;;;5045166;28;20025;-71
2022/11/09 14:23:12;;;;;;;7.00;2.20;;;;;;;;;;5045828;28;20148;-69
2022/11/09 14:25:37;;;;;;;4.45;2.03;;;;;;;;;;5045373;28;20054;-71
2022/11/09 14:28:17;;;;;;;3.00;2.03;;;;;;;;;;5043460;28;20029;-71
2022/11/09 14:30:43;;;;;;;3.55;1.90;;;;;;;;;;5028849;28;20116;-71
2022/11/09 14:33:20;;;;;;;5.88;1.65;;;;;;;;;;5028392;28;20021;-70
2022/11/09 14:35:46;;;;;;;6.05;2.90;;;;;;;;;;5044480;28;20043;-73
2022/11/09 14:38:21;;;;;;;6.95;2.13;;;;;;;;;;5051790;28;20303;-70
2022/11/09 14:40:47;;;;;;;3.65;1.85;;;;;;;;;;5033306;28;20034;-72
2022/11/09 14:43:31;;;;;;;5.95;1.90;;;;;;;;;;5041332;28;20036;-71
2022/11/09 14:46:03;;;;;;;6.70;1.98;;;;;;;;;;5033591;28;20037;-74
2022/11/09 14:48:29;;;;;;;4.30;1.75;;;;;;;;;;5020392;28;20022;-72
2022/11/09 14:50:56;;;;;;;7.50;2.25;;;;;;;;;;5044582;28;20024;-71
2022/11/09 14:53:29;;;;;;;5.50;2.75;;;;;;;;;;5048496;28;20087;-73